createdAt,value
2023-03-15T00:01:42.604Z,2.10
2023-03-15T00:04:12.093Z,2.20
2023-03-15T00:06:41.415Z,2.20
2023-03-15T00:09:12.619Z,2.20
2023-03-15T00:11:42.120Z,2.30
2023-03-15T00:14:51.971Z,2.40
2023-03-15T00:17:46.609Z,2.30
2023-03-15T00:20:16.558Z,2.30
2023-03-15T00:22:47.517Z,2.20
2023-03-15T00:25:18.834Z,2.20
2023-03-15T00:27:48.823Z,2.20
2023-03-15T00:30:19.100Z,2.30
2023-03-15T00:32:48.673Z,2.20
2023-03-15T00:35:18.659Z,2.10
2023-03-15T00:37:48.602Z,2.10
2023-03-15T00:40:19.986Z,2.20
2023-03-15T00:42:50.531Z,2.20
2023-03-15T00:45:20.958Z,2.20
2023-03-15T00:47:51.128Z,2.20
2023-03-15T00:50:20.507Z,2.10
2023-03-15T00:52:50.523Z,2.00
2023-03-15T00:55:22.288Z,2.00
2023-03-15T00:57:51.811Z,2.00
2023-03-15T01:00:24.781Z,2.00
2023-03-15T01:02:55.407Z,2.00
2023-03-15T01:05:24.894Z,2.00
2023-03-15T01:07:54.639Z,1.90
2023-03-15T01:10:24.898Z,2.00
2023-03-15T01:12:54.007Z,2.00
2023-03-15T01:15:23.233Z,2.00
2023-03-15T01:17:52.674Z,2.00
2023-03-15T01:20:21.957Z,2.00
2023-03-15T01:22:51.224Z,2.00
2023-03-15T01:25:20.389Z,2.00
2023-03-15T01:27:51.077Z,2.00
2023-03-15T01:30:20.025Z,2.00
2023-03-15T01:32:50.042Z,2.00
2023-03-15T01:35:19.083Z,2.00
2023-03-15T01:37:51.122Z,2.10
2023-03-15T01:40:23.172Z,2.00
2023-03-15T01:43:13.054Z,2.00
2023-03-15T01:46:09.715Z,1.90
2023-03-15T01:48:47.694Z,1.90
2023-03-15T01:51:26.140Z,1.90
2023-03-15T01:54:00.210Z,1.90
2023-03-15T01:56:31.677Z,1.90
2023-03-15T01:59:05.305Z,1.90
2023-03-15T02:01:38.258Z,1.80
2023-03-15T02:04:11.676Z,1.80
2023-03-15T02:06:47.077Z,1.80
2023-03-15T02:09:19.029Z,1.70
2023-03-15T02:11:50.336Z,1.60
2023-03-15T02:14:23.152Z,1.60
2023-03-15T02:16:54.347Z,1.60
2023-03-15T02:19:43.759Z,1.50
2023-03-15T02:22:31.769Z,1.60
2023-03-15T02:25:04.924Z,1.60
2023-03-15T02:27:38.578Z,1.60
2023-03-15T02:30:08.923Z,1.60
2023-03-15T02:32:38.047Z,1.50
2023-03-15T02:35:07.936Z,1.60
2023-03-15T02:37:36.933Z,1.60
2023-03-15T02:40:18.576Z,1.70
2023-03-15T02:42:53.548Z,1.60
2023-03-15T02:45:23.247Z,1.50
2023-03-15T02:47:53.499Z,1.50
2023-03-15T02:50:22.610Z,1.50
2023-03-15T02:52:53.709Z,1.50
2023-03-15T02:55:24.685Z,1.60
2023-03-15T02:57:55.133Z,1.50
2023-03-15T03:00:24.789Z,1.50
2023-03-15T03:02:54.028Z,1.60
2023-03-15T03:05:24.013Z,1.60
2023-03-15T03:07:52.994Z,1.60
2023-03-15T03:10:22.852Z,1.60
2023-03-15T03:12:56.957Z,1.60
2023-03-15T03:15:38.572Z,1.50
2023-03-15T03:18:07.909Z,1.50
2023-03-15T03:20:36.810Z,1.40
2023-03-15T03:23:06.557Z,1.40
2023-03-15T03:25:37.170Z,1.40
2023-03-15T03:28:07.810Z,1.40
2023-03-15T03:30:38.674Z,1.40
2023-03-15T03:33:07.764Z,1.40
2023-03-15T03:35:36.549Z,1.30
2023-03-15T03:38:06.272Z,1.20
2023-03-15T03:40:39.324Z,1.20
2023-03-15T03:43:11.882Z,1.40
2023-03-15T03:45:41.183Z,1.30
2023-03-15T03:48:12.065Z,1.40
2023-03-15T03:50:42.137Z,1.40
2023-03-15T03:53:12.315Z,1.30
2023-03-15T03:55:43.176Z,1.40
2023-03-15T03:58:14.206Z,1.40
2023-03-15T04:00:54.775Z,1.30
2023-03-15T04:03:27.473Z,1.30
2023-03-15T04:06:06.159Z,1.30
2023-03-15T04:08:40.113Z,1.40
2023-03-15T04:11:11.343Z,1.40
2023-03-15T04:13:44.504Z,1.30
2023-03-15T04:16:15.248Z,1.20
2023-03-15T04:18:56.917Z,1.10
2023-03-15T04:21:26.802Z,1.20
2023-03-15T04:24:01.634Z,1.10
2023-03-15T04:27:00.725Z,1.10
2023-03-15T04:29:54.378Z,1.00
2023-03-15T04:32:42.903Z,1.00
2023-03-15T04:35:31.403Z,1.00
2023-03-15T04:38:11.614Z,1.00
2023-03-15T04:41:00.760Z,1.10
2023-03-15T04:43:43.022Z,1.10
2023-03-15T04:46:39.581Z,1.10
2023-03-15T04:49:15.909Z,1.10
2023-03-15T04:51:56.301Z,1.10
2023-03-15T04:54:48.695Z,1.10
2023-03-15T04:57:57.713Z,1.10
2023-03-15T05:00:42.499Z,1.00
2023-03-15T05:03:41.370Z,1.10
2023-03-15T05:06:31.746Z,0.90
2023-03-15T05:09:04.658Z,0.90
2023-03-15T05:11:45.283Z,0.90
2023-03-15T05:14:33.390Z,0.90
2023-03-15T05:17:25.711Z,0.90
2023-03-15T05:20:17.448Z,0.80
2023-03-15T05:23:12.825Z,0.80
2023-03-15T05:26:10.947Z,0.90
2023-03-15T05:28:46.752Z,0.90
2023-03-15T05:31:37.572Z,1.00
2023-03-15T05:34:14.419Z,1.00
2023-03-15T05:37:13.815Z,0.90
2023-03-15T05:40:05.081Z,0.90
2023-03-15T05:42:45.367Z,1.00
2023-03-15T05:45:20.618Z,1.00
2023-03-15T05:47:49.534Z,1.10
2023-03-15T05:50:36.703Z,1.20
2023-03-15T05:53:30.557Z,1.20
2023-03-15T05:56:08.210Z,1.30
2023-03-15T05:58:56.056Z,1.30
2023-03-15T06:01:45.079Z,1.20
2023-03-15T06:04:22.072Z,1.30
2023-03-15T06:06:53.350Z,1.30
2023-03-15T06:09:25.215Z,1.40
2023-03-15T06:11:54.078Z,1.50
2023-03-15T06:14:24.495Z,1.40
2023-03-15T06:16:57.360Z,1.40
2023-03-15T06:19:29.574Z,1.50
2023-03-15T06:21:58.956Z,1.60
2023-03-15T06:24:35.755Z,1.60
2023-03-15T06:27:04.991Z,1.60
2023-03-15T06:29:36.566Z,1.80
2023-03-15T06:32:06.915Z,1.90
2023-03-15T06:34:40.807Z,1.80
2023-03-15T06:37:10.757Z,2.00
2023-03-15T06:39:41.886Z,2.00
2023-03-15T06:42:13.549Z,2.10
2023-03-15T06:44:44.238Z,2.20
2023-03-15T06:47:16.243Z,2.20
2023-03-15T06:49:45.963Z,2.30
2023-03-15T06:52:15.744Z,2.40
2023-03-15T06:54:46.546Z,2.60
2023-03-15T06:57:15.670Z,2.70
2023-03-15T06:59:44.957Z,2.70
2023-03-15T07:02:17.343Z,3.00
2023-03-15T07:04:47.354Z,3.10
2023-03-15T07:07:17.123Z,3.30
2023-03-15T07:09:47.763Z,3.40
2023-03-15T07:12:17.166Z,3.40
2023-03-15T07:14:47.227Z,3.20
2023-03-15T07:17:16.297Z,3.20
2023-03-15T07:19:55.911Z,3.20
2023-03-15T07:22:27.222Z,3.20
2023-03-15T07:24:58.226Z,3.20
2023-03-15T07:27:27.544Z,3.30
2023-03-15T07:29:56.456Z,3.40
2023-03-15T07:32:25.607Z,3.30
2023-03-15T07:34:55.315Z,3.30
2023-03-15T07:37:24.325Z,3.60
2023-03-15T07:39:53.569Z,3.70
2023-03-15T07:42:24.533Z,3.80
2023-03-15T07:44:58.025Z,4.00
2023-03-15T07:47:27.102Z,4.00
2023-03-15T07:49:56.059Z,4.10
2023-03-15T07:52:27.118Z,4.30
2023-03-15T07:54:56.584Z,4.40
2023-03-15T07:57:28.889Z,4.30
2023-03-15T07:59:59.077Z,4.50
2023-03-15T08:02:30.634Z,4.90
2023-03-15T08:05:00.147Z,4.90
2023-03-15T08:07:29.435Z,4.80
2023-03-15T08:09:59.661Z,4.90
2023-03-15T08:12:30.917Z,5.10
2023-03-15T08:15:00.445Z,5.30
2023-03-15T08:17:29.317Z,4.90
2023-03-15T08:19:58.973Z,4.80
2023-03-15T08:22:28.545Z,4.70
2023-03-15T08:24:58.355Z,4.80
2023-03-15T08:27:29.466Z,5.20
2023-03-15T08:29:59.024Z,5.10
2023-03-15T08:32:30.254Z,5.10
2023-03-15T08:34:59.443Z,5.10
2023-03-15T08:37:28.831Z,4.90
2023-03-15T08:40:05.982Z,4.70
2023-03-15T08:42:37.755Z,4.60
2023-03-15T08:45:08.594Z,4.80
2023-03-15T08:47:38.073Z,4.80
2023-03-15T08:50:11.412Z,5.00
2023-03-15T08:52:41.025Z,5.20
2023-03-15T08:55:14.600Z,5.00
2023-03-15T08:57:45.402Z,5.00
2023-03-15T09:00:21.629Z,5.20
2023-03-15T09:02:52.757Z,5.30
2023-03-15T09:05:23.941Z,5.40
2023-03-15T09:07:55.106Z,5.30
2023-03-15T09:10:26.957Z,5.40
2023-03-15T09:13:00.739Z,5.50
2023-03-15T09:15:31.432Z,5.50
2023-03-15T09:18:01.216Z,5.60
2023-03-15T09:20:30.630Z,5.60
2023-03-15T09:23:00.554Z,5.60
2023-03-15T09:25:29.899Z,5.60
2023-03-15T09:28:03.156Z,5.90
2023-03-15T09:30:32.301Z,6.30
2023-03-15T09:33:03.495Z,6.80
2023-03-15T09:35:34.105Z,6.90
2023-03-15T09:38:04.212Z,7.30
2023-03-15T09:40:37.350Z,7.20
2023-03-15T09:43:22.969Z,7.40
2023-03-15T09:46:07.829Z,8.20
2023-03-15T09:48:42.466Z,8.80
2023-03-15T09:51:18.211Z,8.30
2023-03-15T09:53:54.378Z,8.00
2023-03-15T09:56:27.451Z,8.40
2023-03-15T09:59:02.201Z,8.20
2023-03-15T10:01:35.137Z,8.70
2023-03-15T10:04:12.483Z,9.10
2023-03-15T10:06:46.568Z,8.40
2023-03-15T10:09:21.420Z,7.60
2023-03-15T10:11:58.562Z,7.30
2023-03-15T10:14:39.663Z,7.20
2023-03-15T10:17:14.470Z,7.10
2023-03-15T10:19:52.378Z,6.80
2023-03-15T10:22:28.758Z,6.90
2023-03-15T10:25:08.548Z,7.20
2023-03-15T10:27:43.793Z,7.30
2023-03-15T10:30:22.067Z,7.20
2023-03-15T10:32:57.669Z,7.20
2023-03-15T10:35:26.990Z,7.60
2023-03-15T10:37:57.139Z,8.10
2023-03-15T10:40:44.397Z,7.90
2023-03-15T10:43:21.136Z,8.10
2023-03-15T10:46:03.210Z,8.10
2023-03-15T10:48:34.117Z,8.10
2023-03-15T10:51:06.834Z,8.10
2023-03-15T10:53:38.680Z,8.50
2023-03-15T10:56:14.654Z,8.80
2023-03-15T10:59:02.289Z,8.60
2023-03-15T11:01:40.424Z,8.80
2023-03-15T11:04:16.806Z,8.20
2023-03-15T11:06:49.075Z,8.10
2023-03-15T11:09:22.850Z,8.40
2023-03-15T11:11:59.504Z,8.40
2023-03-15T11:14:34.770Z,8.50
2023-03-15T11:17:06.944Z,8.80
2023-03-15T11:19:42.624Z,8.60
2023-03-15T11:22:15.790Z,9.40
2023-03-15T11:24:45.290Z,9.80
2023-03-15T11:27:16.832Z,9.80
2023-03-15T11:29:50.528Z,9.80
2023-03-15T11:32:24.627Z,10.00
2023-03-15T11:35:00.514Z,10.70
2023-03-15T11:37:34.988Z,10.60
2023-03-15T11:40:14.428Z,11.10
2023-03-15T11:42:51.051Z,11.70
2023-03-15T11:45:29.037Z,12.10
2023-03-15T11:48:26.370Z,11.20
2023-03-15T11:50:56.050Z,10.60
2023-03-15T11:53:27.323Z,9.70
2023-03-15T11:55:56.598Z,9.10
2023-03-15T11:58:32.346Z,9.20
2023-03-15T12:01:05.973Z,8.90
2023-03-15T12:03:42.362Z,8.70
2023-03-15T12:06:49.372Z,8.90
2023-03-15T12:09:41.468Z,8.90
2023-03-15T12:12:38.729Z,9.20
2023-03-15T12:15:36.173Z,9.20
2023-03-15T12:18:07.535Z,10.20
2023-03-15T12:20:40.246Z,11.30
2023-03-15T12:23:24.424Z,11.80
2023-03-15T12:25:57.696Z,11.80
2023-03-15T12:28:30.772Z,11.60
2023-03-15T12:31:03.746Z,11.00
2023-03-15T12:33:34.738Z,10.70
2023-03-15T12:36:11.909Z,10.30
2023-03-15T12:38:43.414Z,9.90
2023-03-15T12:41:39.010Z,9.70
2023-03-15T12:44:38.580Z,10.20
2023-03-15T12:47:09.026Z,10.20
2023-03-15T12:49:41.441Z,11.00
2023-03-15T12:52:43.674Z,10.60
2023-03-15T12:55:17.615Z,10.00
2023-03-15T12:57:54.237Z,9.00
2023-03-15T13:00:25.526Z,8.70
2023-03-15T13:03:04.418Z,8.30
2023-03-15T13:05:38.288Z,7.90
2023-03-15T13:08:11.005Z,8.10
2023-03-15T13:10:57.361Z,8.00
2023-03-15T13:13:53.469Z,7.80
2023-03-15T13:16:31.377Z,8.00
2023-03-15T13:19:06.071Z,8.00
2023-03-15T13:21:38.205Z,7.90
2023-03-15T13:24:14.697Z,7.90
2023-03-15T13:26:51.872Z,7.80
2023-03-15T13:29:28.896Z,7.80
2023-03-15T13:32:15.754Z,7.70
2023-03-15T13:34:48.517Z,7.60
2023-03-15T13:37:22.106Z,7.70
2023-03-15T13:39:57.451Z,7.80
2023-03-15T13:42:27.434Z,7.70
2023-03-15T13:45:18.588Z,7.50
2023-03-15T13:47:48.533Z,7.30
2023-03-15T13:50:26.159Z,7.20
2023-03-15T13:52:58.913Z,7.20
2023-03-15T13:55:34.390Z,7.20
2023-03-15T13:58:10.613Z,7.50
2023-03-15T14:00:41.989Z,7.70
2023-03-15T14:03:17.693Z,7.80
2023-03-15T14:05:49.861Z,7.90
2023-03-15T14:08:26.049Z,8.20
2023-03-15T14:11:04.150Z,8.60
2023-03-15T14:13:35.929Z,8.70
2023-03-15T14:16:08.861Z,8.70
2023-03-15T14:18:40.197Z,8.90
2023-03-15T14:21:14.600Z,11.00
2023-03-15T14:23:45.568Z,12.80
2023-03-15T14:26:20.245Z,14.60
2023-03-15T14:28:51.938Z,14.50
2023-03-15T14:31:30.955Z,14.80
2023-03-15T14:34:07.655Z,12.90
2023-03-15T14:36:44.586Z,10.40
2023-03-15T14:39:21.891Z,9.40
2023-03-15T14:41:53.251Z,8.60
2023-03-15T14:44:23.053Z,7.90
2023-03-15T14:46:54.541Z,7.40
2023-03-15T14:49:26.780Z,7.10
2023-03-15T14:52:01.365Z,6.80
2023-03-15T14:54:32.772Z,6.50
2023-03-15T14:57:02.137Z,6.50
2023-03-15T14:59:31.343Z,6.30
2023-03-15T15:02:03.616Z,6.00
2023-03-15T15:04:37.937Z,6.00
2023-03-15T15:07:08.278Z,5.90
2023-03-15T15:09:40.076Z,5.80
2023-03-15T15:12:11.920Z,5.70
2023-03-15T15:14:43.089Z,5.60
2023-03-15T15:17:15.376Z,5.40
2023-03-15T15:19:46.657Z,5.30
2023-03-15T15:22:19.229Z,5.30
2023-03-15T15:24:51.411Z,5.30
2023-03-15T15:27:21.085Z,5.30
2023-03-15T15:29:50.640Z,5.30
2023-03-15T15:32:21.241Z,5.30
2023-03-15T15:34:55.246Z,5.30
2023-03-15T15:37:24.540Z,5.40
2023-03-15T15:39:53.946Z,5.30
2023-03-15T15:42:23.569Z,5.20
2023-03-15T15:44:52.825Z,5.10
2023-03-15T15:47:23.704Z,5.00
2023-03-15T15:49:53.194Z,6.00
2023-03-15T15:52:23.374Z,7.70
2023-03-15T15:54:52.963Z,9.40
2023-03-15T15:57:26.814Z,9.70
2023-03-15T15:59:57.650Z,9.00
2023-03-15T16:02:31.110Z,8.80
2023-03-15T16:05:00.486Z,8.50
2023-03-15T16:07:30.606Z,8.10
2023-03-15T16:10:01.963Z,7.30
2023-03-15T16:12:33.452Z,6.70
2023-03-15T16:15:02.667Z,6.70
2023-03-15T16:17:33.597Z,7.10
2023-03-15T16:20:08.340Z,6.80
2023-03-15T16:22:39.210Z,6.00
2023-03-15T16:25:12.516Z,5.50
2023-03-15T16:27:47.789Z,5.10
2023-03-15T16:30:22.626Z,4.60
2023-03-15T16:32:55.413Z,4.40
2023-03-15T16:35:29.328Z,4.00
2023-03-15T16:37:59.567Z,3.90
2023-03-15T16:40:31.329Z,3.60
2023-03-15T16:43:01.215Z,3.40
2023-03-15T16:45:30.831Z,3.30
2023-03-15T16:48:01.722Z,3.20
2023-03-15T16:50:31.168Z,3.00
2023-03-15T16:53:02.682Z,2.80
2023-03-15T16:55:34.604Z,2.70
2023-03-15T16:58:06.559Z,2.50
2023-03-15T17:00:35.794Z,2.60
2023-03-15T17:03:06.792Z,2.50
2023-03-15T17:05:35.905Z,2.40
2023-03-15T17:08:05.113Z,2.30
2023-03-15T17:10:34.915Z,2.10
2023-03-15T17:13:04.838Z,2.10
2023-03-15T17:15:34.253Z,2.20
2023-03-15T17:18:03.786Z,2.10
2023-03-15T17:20:38.035Z,2.00
2023-03-15T17:23:18.803Z,1.90
2023-03-15T17:25:51.176Z,2.70
2023-03-15T17:28:23.604Z,1.60
2023-03-15T17:30:59.602Z,1.60
2023-03-15T17:33:38.738Z,1.40
2023-03-15T17:36:14.246Z,1.20
2023-03-15T17:38:46.447Z,1.00
2023-03-15T17:41:21.897Z,0.90
2023-03-15T17:43:53.454Z,0.80
2023-03-15T17:46:28.574Z,0.80
2023-03-15T17:48:58.745Z,0.70
2023-03-15T17:51:32.653Z,0.70
2023-03-15T17:54:02.797Z,0.70
2023-03-15T17:56:33.379Z,0.70
2023-03-15T17:59:03.199Z,0.70
2023-03-15T18:01:44.316Z,0.70
2023-03-15T18:04:21.087Z,0.60
2023-03-15T18:06:55.893Z,0.60
2023-03-15T18:09:30.115Z,1.40
2023-03-15T18:11:59.970Z,0.60
2023-03-15T18:14:37.899Z,0.80
2023-03-15T18:17:07.673Z,1.00
2023-03-15T18:19:41.133Z,1.10
2023-03-15T18:22:19.526Z,0.90
2023-03-15T18:24:51.267Z,0.80
2023-03-15T18:27:21.185Z,0.70
2023-03-15T18:29:50.996Z,0.50
2023-03-15T18:32:20.401Z,0.40
2023-03-15T18:34:50.450Z,0.30
2023-03-15T18:37:22.180Z,0.10
2023-03-15T18:39:51.679Z,0.00
2023-03-15T18:42:21.097Z,-0.20
2023-03-15T18:44:51.239Z,-0.30
2023-03-15T18:47:20.675Z,-0.50
2023-03-15T18:49:53.142Z,-0.50
2023-03-15T18:52:26.345Z,-0.60
2023-03-15T18:54:56.155Z,-0.80
2023-03-15T18:57:25.609Z,-0.90
2023-03-15T18:59:55.210Z,-0.90
2023-03-15T19:02:25.014Z,-1.00
2023-03-15T19:04:54.724Z,-1.10
2023-03-15T19:07:26.738Z,-1.10
2023-03-15T19:09:56.560Z,-1.10
2023-03-15T19:12:26.122Z,-1.20
2023-03-15T19:14:55.538Z,-1.40
2023-03-15T19:17:25.617Z,-1.50
2023-03-15T19:19:55.669Z,-1.60
2023-03-15T19:22:31.254Z,-1.10
2023-03-15T19:25:01.050Z,-1.50
2023-03-15T19:27:30.483Z,-1.40
2023-03-15T19:30:00.382Z,-1.40
2023-03-15T19:32:31.060Z,-1.40
2023-03-15T19:35:01.855Z,-1.10
2023-03-15T19:37:32.956Z,-1.00
2023-03-15T19:40:02.639Z,-0.90
2023-03-15T19:42:32.978Z,-0.90
2023-03-15T19:45:03.271Z,-0.90
2023-03-15T19:47:32.907Z,-0.90
2023-03-15T19:50:02.667Z,-0.80
2023-03-15T19:52:34.642Z,-0.90
2023-03-15T19:55:04.498Z,-0.90
2023-03-15T19:57:34.671Z,-0.90
2023-03-15T20:00:04.548Z,-0.80
2023-03-15T20:02:35.761Z,-0.70
2023-03-15T20:05:05.957Z,-0.70
2023-03-15T20:07:40.750Z,-0.70
2023-03-15T20:10:14.144Z,-0.60
2023-03-15T20:12:48.130Z,-0.50
2023-03-15T20:15:22.269Z,-0.50
2023-03-15T20:17:52.496Z,-0.40
2023-03-15T20:20:22.505Z,-0.30
2023-03-15T20:22:54.987Z,-0.30
2023-03-15T20:25:26.769Z,-0.20
2023-03-15T20:28:19.434Z,-0.30
2023-03-15T20:30:51.616Z,-0.50
2023-03-15T20:33:33.101Z,-0.40
2023-03-15T20:36:06.959Z,-0.30
2023-03-15T20:38:38.850Z,-0.30
2023-03-15T20:41:09.595Z,-0.40
2023-03-15T20:43:42.669Z,-0.50
2023-03-15T20:46:14.077Z,-0.60
2023-03-15T20:48:43.661Z,-0.80
2023-03-15T20:51:14.663Z,-0.80
2023-03-15T20:53:46.833Z,-0.80
2023-03-15T20:56:16.990Z,-0.70
2023-03-15T20:58:47.738Z,-0.50
2023-03-15T21:01:17.441Z,-0.50
2023-03-15T21:03:47.638Z,-0.50
2023-03-15T21:06:17.080Z,-0.50
2023-03-15T21:08:47.997Z,-0.50
2023-03-15T21:11:17.289Z,-0.50
2023-03-15T21:13:46.868Z,-0.50
2023-03-15T21:16:16.221Z,-0.50
2023-03-15T21:18:52.452Z,-0.50
2023-03-15T21:21:21.838Z,-0.60
2023-03-15T21:23:53.879Z,-0.70
2023-03-15T21:26:23.949Z,-0.60
2023-03-15T21:28:54.188Z,-0.60
2023-03-15T21:31:23.699Z,-0.60
2023-03-15T21:33:53.045Z,-0.50
2023-03-15T21:36:22.610Z,-0.60
2023-03-15T21:38:53.340Z,-0.60
2023-03-15T21:41:23.256Z,-0.60
2023-03-15T21:43:52.566Z,-0.70
2023-03-15T21:46:22.577Z,-0.80
2023-03-15T21:48:51.965Z,-0.70
2023-03-15T21:51:23.051Z,-0.80
2023-03-15T21:53:55.332Z,-0.80
2023-03-15T21:56:35.891Z,-0.80
2023-03-15T21:59:06.694Z,-0.80
2023-03-15T22:01:38.309Z,-0.80
2023-03-15T22:04:11.069Z,-0.90
2023-03-15T22:06:42.900Z,-1.00
2023-03-15T22:09:14.894Z,-0.90
2023-03-15T22:11:44.436Z,-0.80
2023-03-15T22:14:13.612Z,-0.80
2023-03-15T22:16:43.116Z,-0.90
2023-03-15T22:19:12.590Z,-0.80
2023-03-15T22:21:42.661Z,-0.90
2023-03-15T22:24:13.272Z,-0.90
2023-03-15T22:26:43.370Z,-0.90
2023-03-15T22:29:13.061Z,-1.00
2023-03-15T22:31:42.206Z,-1.00
2023-03-15T22:34:11.680Z,-1.10
2023-03-15T22:36:42.994Z,-1.10
2023-03-15T22:39:14.747Z,-1.00
2023-03-15T22:41:43.974Z,-1.00
2023-03-15T22:44:13.407Z,-1.10
2023-03-15T22:46:42.400Z,-1.10
2023-03-15T22:49:11.911Z,-1.10
2023-03-15T22:51:41.202Z,-1.10
2023-03-15T22:54:10.603Z,-1.10
2023-03-15T22:56:41.516Z,-1.00
2023-03-15T22:59:10.626Z,-1.00
2023-03-15T23:01:40.062Z,-1.10
2023-03-15T23:04:09.805Z,-1.00
2023-03-15T23:06:39.086Z,-1.00
2023-03-15T23:09:08.319Z,-1.00
2023-03-15T23:11:37.120Z,-1.10
2023-03-15T23:14:07.681Z,-1.10
2023-03-15T23:16:37.109Z,-1.10
2023-03-15T23:19:06.384Z,-1.10
2023-03-15T23:21:36.239Z,-1.20
2023-03-15T23:24:05.757Z,-1.20
2023-03-15T23:26:38.059Z,-1.30
2023-03-15T23:29:11.675Z,-1.40
2023-03-15T23:31:40.908Z,-1.40
2023-03-15T23:34:10.651Z,-1.60
2023-03-15T23:36:39.344Z,-1.60
2023-03-15T23:39:08.472Z,-1.70
2023-03-15T23:41:38.309Z,-1.80
2023-03-15T23:44:08.976Z,-1.90
2023-03-15T23:46:38.149Z,-2.00
2023-03-15T23:49:07.581Z,-2.20
2023-03-15T23:51:36.754Z,-2.00
2023-03-15T23:54:05.890Z,-1.90
2023-03-15T23:56:35.652Z,-1.80
2023-03-15T23:59:04.694Z,-1.80
